sensor_id;sensor_type;location;lat;lon;timestamp;P1;durP1;ratioP1;P2;durP2;ratioP2
48651;SDS011;34442;52.362;-1.302;2023-03-03T00:00:57;2.03;;;1.30;;
48651;SDS011;34442;52.362;-1.302;2023-03-03T00:03:23;2.90;;;1.30;;
48651;SDS011;34442;52.362;-1.302;2023-03-03T00:05:51;3.33;;;1.50;;
48651;SDS011;34442;52.362;-1.302;2023-03-03T00:08:17;2.08;;;1.00;;
48651;SDS011;34442;52.362;-1.302;2023-03-03T00:10:44;1.15;;;0.88;;
48651;SDS011;34442;52.362;-1.302;2023-03-03T00:13:14;1.52;;;1.10;;
48651;SDS011;34442;52.362;-1.302;2023-03-03T00:15:42;5.25;;;1.50;;
48651;SDS011;34442;52.362;-1.302;2023-03-03T00:18:16;2.25;;;1.30;;
48651;SDS011;34442;52.362;-1.302;2023-03-03T00:20:53;1.80;;;1.20;;
48651;SDS011;34442;52.362;-1.302;2023-03-03T00:25:59;2.47;;;1.20;;
48651;SDS011;34442;52.362;-1.302;2023-03-03T00:30:52;2.03;;;1.30;;
48651;SDS011;34442;52.362;-1.302;2023-03-03T00:38:18;2.20;;;1.10;;
48651;SDS011;34442;52.362;-1.302;2023-03-03T00:40:44;5.30;;;1.75;;
48651;SDS011;34442;52.362;-1.302;2023-03-03T00:45:46;2.88;;;1.25;;
48651;SDS011;34442;52.362;-1.302;2023-03-03T00:50:48;3.78;;;1.30;;
48651;SDS011;34442;52.362;-1.302;2023-03-03T00:53:15;2.78;;;1.10;;
48651;SDS011;34442;52.362;-1.302;2023-03-03T00:55:43;1.52;;;1.05;;
48651;SDS011;34442;52.362;-1.302;2023-03-03T00:58:10;2.28;;;1.30;;
48651;SDS011;34442;52.362;-1.302;2023-03-03T01:00:35;3.05;;;1.30;;
48651;SDS011;34442;52.362;-1.302;2023-03-03T01:03:02;2.72;;;1.33;;
48651;SDS011;34442;52.362;-1.302;2023-03-03T01:05:29;3.55;;;1.33;;
48651;SDS011;34442;52.362;-1.302;2023-03-03T01:07:55;2.58;;;1.30;;
48651;SDS011;34442;52.362;-1.302;2023-03-03T01:10:20;2.33;;;1.40;;
48651;SDS011;34442;52.362;-1.302;2023-03-03T01:12:46;2.00;;;1.23;;
48651;SDS011;34442;52.362;-1.302;2023-03-03T01:15:12;1.90;;;1.10;;
48651;SDS011;34442;52.362;-1.302;2023-03-03T01:17:39;2.05;;;0.98;;
48651;SDS011;34442;52.362;-1.302;2023-03-03T01:20:06;1.73;;;1.05;;
48651;SDS011;34442;52.362;-1.302;2023-03-03T01:22:34;1.55;;;1.00;;
48651;SDS011;34442;52.362;-1.302;2023-03-03T01:25:00;3.75;;;1.70;;
48651;SDS011;34442;52.362;-1.302;2023-03-03T01:27:27;1.65;;;1.15;;
48651;SDS011;34442;52.362;-1.302;2023-03-03T01:29:53;1.98;;;1.15;;
48651;SDS011;34442;52.362;-1.302;2023-03-03T01:32:20;1.70;;;1.10;;
48651;SDS011;34442;52.362;-1.302;2023-03-03T01:34:46;2.17;;;1.10;;
48651;SDS011;34442;52.362;-1.302;2023-03-03T01:37:11;2.63;;;1.30;;
48651;SDS011;34442;52.362;-1.302;2023-03-03T01:39:37;1.88;;;1.17;;
48651;SDS011;34442;52.362;-1.302;2023-03-03T01:42:02;1.63;;;1.02;;
48651;SDS011;34442;52.362;-1.302;2023-03-03T01:44:28;2.20;;;1.10;;
48651;SDS011;34442;52.362;-1.302;2023-03-03T01:47:06;2.38;;;1.20;;
48651;SDS011;34442;52.362;-1.302;2023-03-03T01:54:52;1.60;;;0.90;;
48651;SDS011;34442;52.362;-1.302;2023-03-03T01:57:29;2.63;;;1.08;;
48651;SDS011;34442;52.362;-1.302;2023-03-03T01:59:59;2.88;;;1.17;;
48651;SDS011;34442;52.362;-1.302;2023-03-03T02:02:28;3.22;;;1.40;;
48651;SDS011;34442;52.362;-1.302;2023-03-03T02:04:55;3.50;;;1.20;;
48651;SDS011;34442;52.362;-1.302;2023-03-03T02:07:21;1.98;;;1.25;;
48651;SDS011;34442;52.362;-1.302;2023-03-03T02:09:51;0.95;;;0.85;;
48651;SDS011;34442;52.362;-1.302;2023-03-03T02:12:25;2.30;;;1.30;;
48651;SDS011;34442;52.362;-1.302;2023-03-03T02:14:55;2.95;;;1.40;;
48651;SDS011;34442;52.362;-1.302;2023-03-03T02:17:20;1.73;;;1.10;;
48651;SDS011;34442;52.362;-1.302;2023-03-03T02:25:43;2.10;;;1.25;;
48651;SDS011;34442;52.362;-1.302;2023-03-03T02:28:26;2.65;;;1.23;;
48651;SDS011;34442;52.362;-1.302;2023-03-03T02:30:54;4.75;;;1.20;;
48651;SDS011;34442;52.362;-1.302;2023-03-03T02:33:20;1.70;;;1.00;;
48651;SDS011;34442;52.362;-1.302;2023-03-03T02:35:46;2.20;;;0.90;;
48651;SDS011;34442;52.362;-1.302;2023-03-03T02:40:52;1.00;;;0.90;;
48651;SDS011;34442;52.362;-1.302;2023-03-03T02:43:27;1.58;;;0.75;;
48651;SDS011;34442;52.362;-1.302;2023-03-03T02:46:00;0.95;;;0.85;;
48651;SDS011;34442;52.362;-1.302;2023-03-03T02:48:26;2.42;;;1.30;;
48651;SDS011;34442;52.362;-1.302;2023-03-03T02:50:51;1.55;;;0.95;;
48651;SDS011;34442;52.362;-1.302;2023-03-03T02:53:17;1.85;;;0.82;;
48651;SDS011;34442;52.362;-1.302;2023-03-03T02:55:42;1.23;;;0.90;;
48651;SDS011;34442;52.362;-1.302;2023-03-03T02:58:07;2.70;;;1.23;;
48651;SDS011;34442;52.362;-1.302;2023-03-03T03:00:33;1.75;;;1.10;;
48651;SDS011;34442;52.362;-1.302;2023-03-03T03:02:58;2.00;;;1.10;;
48651;SDS011;34442;52.362;-1.302;2023-03-03T03:05:24;2.60;;;1.45;;
48651;SDS011;34442;52.362;-1.302;2023-03-03T03:07:49;1.92;;;1.02;;
48651;SDS011;34442;52.362;-1.302;2023-03-03T03:10:14;2.28;;;1.10;;
48651;SDS011;34442;52.362;-1.302;2023-03-03T03:12:40;2.15;;;1.10;;
48651;SDS011;34442;52.362;-1.302;2023-03-03T03:15:05;1.88;;;1.00;;
48651;SDS011;34442;52.362;-1.302;2023-03-03T03:17:33;1.90;;;1.00;;
48651;SDS011;34442;52.362;-1.302;2023-03-03T03:20:00;1.92;;;1.20;;
48651;SDS011;34442;52.362;-1.302;2023-03-03T03:22:25;4.30;;;1.58;;
48651;SDS011;34442;52.362;-1.302;2023-03-03T03:24:51;2.33;;;1.13;;
48651;SDS011;34442;52.362;-1.302;2023-03-03T03:27:16;1.55;;;0.93;;
48651;SDS011;34442;52.362;-1.302;2023-03-03T03:29:43;1.58;;;1.02;;
48651;SDS011;34442;52.362;-1.302;2023-03-03T03:32:08;3.10;;;1.60;;
48651;SDS011;34442;52.362;-1.302;2023-03-03T03:34:34;2.88;;;1.33;;
48651;SDS011;34442;52.362;-1.302;2023-03-03T03:37:01;2.13;;;1.20;;
48651;SDS011;34442;52.362;-1.302;2023-03-03T03:39:27;3.45;;;1.25;;
48651;SDS011;34442;52.362;-1.302;2023-03-03T03:41:52;3.53;;;1.40;;
48651;SDS011;34442;52.362;-1.302;2023-03-03T03:44:18;2.10;;;1.38;;
48651;SDS011;34442;52.362;-1.302;2023-03-03T03:46:43;1.30;;;1.08;;
48651;SDS011;34442;52.362;-1.302;2023-03-03T03:49:08;1.73;;;1.10;;
48651;SDS011;34442;52.362;-1.302;2023-03-03T03:51:34;2.35;;;1.38;;
48651;SDS011;34442;52.362;-1.302;2023-03-03T03:54:02;3.05;;;1.50;;
48651;SDS011;34442;52.362;-1.302;2023-03-03T03:56:27;3.38;;;1.55;;
48651;SDS011;34442;52.362;-1.302;2023-03-03T03:58:53;2.10;;;1.20;;
48651;SDS011;34442;52.362;-1.302;2023-03-03T04:01:18;1.45;;;1.00;;
48651;SDS011;34442;52.362;-1.302;2023-03-03T04:03:44;1.40;;;0.98;;
48651;SDS011;34442;52.362;-1.302;2023-03-03T04:06:09;2.30;;;1.20;;
48651;SDS011;34442;52.362;-1.302;2023-03-03T04:08:34;1.63;;;0.95;;
48651;SDS011;34442;52.362;-1.302;2023-03-03T04:11:00;2.25;;;1.13;;
48651;SDS011;34442;52.362;-1.302;2023-03-03T04:13:25;1.17;;;0.80;;
48651;SDS011;34442;52.362;-1.302;2023-03-03T04:15:53;1.27;;;0.98;;
48651;SDS011;34442;52.362;-1.302;2023-03-03T04:18:18;1.20;;;0.82;;
48651;SDS011;34442;52.362;-1.302;2023-03-03T04:20:43;2.70;;;1.40;;
48651;SDS011;34442;52.362;-1.302;2023-03-03T04:23:09;1.55;;;0.90;;
48651;SDS011;34442;52.362;-1.302;2023-03-03T04:25:34;1.65;;;1.02;;
48651;SDS011;34442;52.362;-1.302;2023-03-03T04:28:00;1.85;;;1.20;;
48651;SDS011;34442;52.362;-1.302;2023-03-03T04:30:25;1.85;;;0.93;;
48651;SDS011;34442;52.362;-1.302;2023-03-03T04:32:51;2.22;;;1.38;;
48651;SDS011;34442;52.362;-1.302;2023-03-03T04:35:17;1.70;;;1.10;;
48651;SDS011;34442;52.362;-1.302;2023-03-03T04:37:42;1.27;;;1.00;;
48651;SDS011;34442;52.362;-1.302;2023-03-03T04:40:08;1.73;;;1.25;;
48651;SDS011;34442;52.362;-1.302;2023-03-03T04:42:35;3.10;;;1.20;;
48651;SDS011;34442;52.362;-1.302;2023-03-03T04:45:01;3.35;;;2.50;;
48651;SDS011;34442;52.362;-1.302;2023-03-03T04:47:27;2.00;;;1.13;;
48651;SDS011;34442;52.362;-1.302;2023-03-03T04:49:52;1.95;;;1.10;;
48651;SDS011;34442;52.362;-1.302;2023-03-03T04:52:17;2.08;;;1.20;;
48651;SDS011;34442;52.362;-1.302;2023-03-03T04:54:43;3.08;;;1.50;;
48651;SDS011;34442;52.362;-1.302;2023-03-03T04:57:08;2.92;;;1.10;;
48651;SDS011;34442;52.362;-1.302;2023-03-03T04:59:34;1.30;;;0.80;;
48651;SDS011;34442;52.362;-1.302;2023-03-03T05:02:00;1.88;;;1.30;;
48651;SDS011;34442;52.362;-1.302;2023-03-03T05:04:25;3.00;;;1.58;;
48651;SDS011;34442;52.362;-1.302;2023-03-03T05:06:50;2.15;;;1.13;;
48651;SDS011;34442;52.362;-1.302;2023-03-03T05:09:16;1.45;;;1.00;;
48651;SDS011;34442;52.362;-1.302;2023-03-03T05:11:41;2.08;;;1.20;;
48651;SDS011;34442;52.362;-1.302;2023-03-03T05:14:06;2.05;;;1.20;;
48651;SDS011;34442;52.362;-1.302;2023-03-03T05:16:32;1.63;;;1.00;;
48651;SDS011;34442;52.362;-1.302;2023-03-03T05:19:00;1.88;;;1.00;;
48651;SDS011;34442;52.362;-1.302;2023-03-03T05:21:25;1.45;;;0.90;;
48651;SDS011;34442;52.362;-1.302;2023-03-03T05:23:50;1.92;;;1.10;;
48651;SDS011;34442;52.362;-1.302;2023-03-03T05:26:16;2.88;;;1.30;;
48651;SDS011;34442;52.362;-1.302;2023-03-03T05:28:42;2.20;;;1.17;;
48651;SDS011;34442;52.362;-1.302;2023-03-03T05:31:07;1.10;;;1.00;;
48651;SDS011;34442;52.362;-1.302;2023-03-03T05:33:32;2.00;;;1.10;;
48651;SDS011;34442;52.362;-1.302;2023-03-03T05:35:58;1.10;;;0.90;;
48651;SDS011;34442;52.362;-1.302;2023-03-03T05:38:23;1.35;;;0.90;;
48651;SDS011;34442;52.362;-1.302;2023-03-03T05:40:49;1.80;;;0.90;;
48651;SDS011;34442;52.362;-1.302;2023-03-03T05:43:15;1.38;;;0.85;;
48651;SDS011;34442;52.362;-1.302;2023-03-03T05:45:40;2.17;;;0.85;;
48651;SDS011;34442;52.362;-1.302;2023-03-03T05:48:05;1.65;;;0.95;;
48651;SDS011;34442;52.362;-1.302;2023-03-03T05:50:31;1.52;;;1.00;;
48651;SDS011;34442;52.362;-1.302;2023-03-03T05:52:57;2.05;;;1.17;;
48651;SDS011;34442;52.362;-1.302;2023-03-03T05:55:22;1.08;;;0.88;;
48651;SDS011;34442;52.362;-1.302;2023-03-03T05:57:48;3.13;;;1.30;;
48651;SDS011;34442;52.362;-1.302;2023-03-03T06:00:14;2.03;;;0.98;;
48651;SDS011;34442;52.362;-1.302;2023-03-03T06:02:40;1.83;;;0.80;;
48651;SDS011;34442;52.362;-1.302;2023-03-03T06:05:07;1.52;;;0.85;;
48651;SDS011;34442;52.362;-1.302;2023-03-03T06:07:33;1.75;;;1.08;;
48651;SDS011;34442;52.362;-1.302;2023-03-03T06:09:59;1.83;;;1.10;;
48651;SDS011;34442;52.362;-1.302;2023-03-03T06:12:25;1.05;;;0.80;;
48651;SDS011;34442;52.362;-1.302;2023-03-03T06:14:50;1.83;;;1.00;;
48651;SDS011;34442;52.362;-1.302;2023-03-03T06:17:15;1.27;;;0.93;;
48651;SDS011;34442;52.362;-1.302;2023-03-03T06:19:41;1.33;;;0.90;;
48651;SDS011;34442;52.362;-1.302;2023-03-03T06:22:07;1.77;;;1.30;;
48651;SDS011;34442;52.362;-1.302;2023-03-03T06:24:33;0.90;;;0.80;;
48651;SDS011;34442;52.362;-1.302;2023-03-03T06:26:59;2.13;;;1.00;;
48651;SDS011;34442;52.362;-1.302;2023-03-03T06:29:25;1.35;;;1.00;;
48651;SDS011;34442;52.362;-1.302;2023-03-03T06:31:51;1.40;;;0.73;;
48651;SDS011;34442;52.362;-1.302;2023-03-03T06:34:17;1.17;;;0.80;;
48651;SDS011;34442;52.362;-1.302;2023-03-03T06:36:43;1.15;;;0.80;;
48651;SDS011;34442;52.362;-1.302;2023-03-03T06:39:09;0.88;;;0.70;;
48651;SDS011;34442;52.362;-1.302;2023-03-03T06:41:34;1.65;;;0.90;;
48651;SDS011;34442;52.362;-1.302;2023-03-03T06:44:00;1.40;;;0.80;;
48651;SDS011;34442;52.362;-1.302;2023-03-03T06:46:26;0.95;;;0.73;;
48651;SDS011;34442;52.362;-1.302;2023-03-03T06:48:52;0.70;;;0.70;;
48651;SDS011;34442;52.362;-1.302;2023-03-03T06:51:30;1.45;;;0.88;;
48651;SDS011;34442;52.362;-1.302;2023-03-03T06:54:00;3.42;;;2.00;;
48651;SDS011;34442;52.362;-1.302;2023-03-03T06:56:31;1.80;;;0.80;;
48651;SDS011;34442;52.362;-1.302;2023-03-03T06:59:00;1.17;;;0.80;;
48651;SDS011;34442;52.362;-1.302;2023-03-03T07:01:29;1.73;;;0.90;;
48651;SDS011;34442;52.362;-1.302;2023-03-03T07:03:59;1.13;;;0.80;;
48651;SDS011;34442;52.362;-1.302;2023-03-03T07:06:25;1.75;;;0.90;;
48651;SDS011;34442;52.362;-1.302;2023-03-03T07:08:52;1.38;;;0.90;;
48651;SDS011;34442;52.362;-1.302;2023-03-03T07:11:19;1.55;;;0.90;;
48651;SDS011;34442;52.362;-1.302;2023-03-03T07:13:47;0.80;;;0.73;;
48651;SDS011;34442;52.362;-1.302;2023-03-03T07:16:17;1.48;;;0.90;;
48651;SDS011;34442;52.362;-1.302;2023-03-03T07:18:54;1.67;;;1.00;;
48651;SDS011;34442;52.362;-1.302;2023-03-03T07:23:58;1.00;;;0.90;;
48651;SDS011;34442;52.362;-1.302;2023-03-03T07:26:33;3.40;;;1.40;;
48651;SDS011;34442;52.362;-1.302;2023-03-03T07:29:44;3.42;;;1.50;;
48651;SDS011;34442;52.362;-1.302;2023-03-03T07:31:51;2.65;;;1.10;;
48651;SDS011;34442;52.362;-1.302;2023-03-03T07:34:20;1.77;;;1.00;;
48651;SDS011;34442;52.362;-1.302;2023-03-03T07:36:53;3.17;;;1.17;;
48651;SDS011;34442;52.362;-1.302;2023-03-03T07:44:49;2.65;;;1.08;;
48651;SDS011;34442;52.362;-1.302;2023-03-03T07:47:21;3.03;;;1.55;;
48651;SDS011;34442;52.362;-1.302;2023-03-03T07:49:56;2.53;;;1.27;;
48651;SDS011;34442;52.362;-1.302;2023-03-03T07:55:22;2.03;;;1.20;;
48651;SDS011;34442;52.362;-1.302;2023-03-03T07:57:50;2.08;;;1.20;;
48651;SDS011;34442;52.362;-1.302;2023-03-03T08:02:43;1.67;;;1.17;;
48651;SDS011;34442;52.362;-1.302;2023-03-03T08:07:45;1.50;;;1.10;;
48651;SDS011;34442;52.362;-1.302;2023-03-03T08:15:28;4.30;;;1.67;;
48651;SDS011;34442;52.362;-1.302;2023-03-03T08:17:56;4.13;;;1.40;;
48651;SDS011;34442;52.362;-1.302;2023-03-03T08:22:53;3.03;;;1.70;;
48651;SDS011;34442;52.362;-1.302;2023-03-03T08:25:19;2.83;;;1.50;;
48651;SDS011;34442;52.362;-1.302;2023-03-03T08:27:44;2.80;;;1.42;;
48651;SDS011;34442;52.362;-1.302;2023-03-03T08:30:10;3.28;;;1.77;;
48651;SDS011;34442;52.362;-1.302;2023-03-03T08:32:36;2.00;;;1.30;;
48651;SDS011;34442;52.362;-1.302;2023-03-03T08:35:01;4.25;;;2.03;;
48651;SDS011;34442;52.362;-1.302;2023-03-03T08:37:26;4.15;;;2.20;;
48651;SDS011;34442;52.362;-1.302;2023-03-03T08:39:52;4.60;;;2.00;;
48651;SDS011;34442;52.362;-1.302;2023-03-03T08:42:17;4.05;;;2.13;;
48651;SDS011;34442;52.362;-1.302;2023-03-03T08:44:43;3.70;;;1.63;;
48651;SDS011;34442;52.362;-1.302;2023-03-03T08:47:08;2.92;;;1.40;;
48651;SDS011;34442;52.362;-1.302;2023-03-03T08:49:34;4.15;;;1.70;;
48651;SDS011;34442;52.362;-1.302;2023-03-03T08:51:59;2.40;;;1.60;;
48651;SDS011;34442;52.362;-1.302;2023-03-03T08:54:25;3.70;;;1.45;;
48651;SDS011;34442;52.362;-1.302;2023-03-03T08:56:50;3.17;;;1.60;;
48651;SDS011;34442;52.362;-1.302;2023-03-03T08:59:16;3.50;;;1.70;;
48651;SDS011;34442;52.362;-1.302;2023-03-03T09:01:41;2.90;;;1.50;;
48651;SDS011;34442;52.362;-1.302;2023-03-03T09:04:08;2.28;;;1.35;;
48651;SDS011;34442;52.362;-1.302;2023-03-03T09:06:34;2.53;;;1.38;;
48651;SDS011;34442;52.362;-1.302;2023-03-03T09:09:00;2.47;;;1.55;;
48651;SDS011;34442;52.362;-1.302;2023-03-03T09:11:26;3.78;;;2.08;;
48651;SDS011;34442;52.362;-1.302;2023-03-03T09:13:56;2.63;;;1.50;;
48651;SDS011;34442;52.362;-1.302;2023-03-03T09:16:26;3.38;;;1.95;;
48651;SDS011;34442;52.362;-1.302;2023-03-03T09:18:58;2.60;;;1.40;;
48651;SDS011;34442;52.362;-1.302;2023-03-03T09:21:40;2.33;;;1.45;;
48651;SDS011;34442;52.362;-1.302;2023-03-03T09:24:09;3.35;;;1.40;;
48651;SDS011;34442;52.362;-1.302;2023-03-03T09:26:46;2.33;;;1.30;;
48651;SDS011;34442;52.362;-1.302;2023-03-03T09:32:07;2.63;;;1.63;;
48651;SDS011;34442;52.362;-1.302;2023-03-03T09:34:42;2.60;;;1.40;;
48651;SDS011;34442;52.362;-1.302;2023-03-03T09:39:51;2.78;;;1.63;;
48651;SDS011;34442;52.362;-1.302;2023-03-03T09:48:11;2.83;;;1.40;;
48651;SDS011;34442;52.362;-1.302;2023-03-03T09:53:41;3.97;;;1.95;;
48651;SDS011;34442;52.362;-1.302;2023-03-03T09:56:11;4.05;;;2.00;;
48651;SDS011;34442;52.362;-1.302;2023-03-03T10:20:37;5.28;;;2.80;;
48651;SDS011;34442;52.362;-1.302;2023-03-03T10:23:20;5.78;;;2.83;;
48651;SDS011;34442;52.362;-1.302;2023-03-03T10:26:02;4.75;;;2.65;;
48651;SDS011;34442;52.362;-1.302;2023-03-03T10:47:45;2.13;;;1.15;;
48651;SDS011;34442;52.362;-1.302;2023-03-03T10:53:09;3.00;;;1.50;;
48651;SDS011;34442;52.362;-1.302;2023-03-03T11:01:12;3.60;;;1.83;;
48651;SDS011;34442;52.362;-1.302;2023-03-03T11:03:54;3.72;;;2.15;;
48651;SDS011;34442;52.362;-1.302;2023-03-03T11:06:37;6.38;;;3.38;;
48651;SDS011;34442;52.362;-1.302;2023-03-03T11:11:49;5.40;;;2.90;;
48651;SDS011;34442;52.362;-1.302;2023-03-03T11:17:32;4.32;;;2.38;;
48651;SDS011;34442;52.362;-1.302;2023-03-03T11:22:47;4.88;;;2.28;;
48651;SDS011;34442;52.362;-1.302;2023-03-03T11:27:58;4.22;;;2.17;;
48651;SDS011;34442;52.362;-1.302;2023-03-03T11:33:46;4.68;;;2.58;;
48651;SDS011;34442;52.362;-1.302;2023-03-03T11:39:10;5.53;;;2.72;;
48651;SDS011;34442;52.362;-1.302;2023-03-03T11:41:49;4.22;;;2.38;;
48651;SDS011;34442;52.362;-1.302;2023-03-03T11:47:01;4.10;;;2.40;;
48651;SDS011;34442;52.362;-1.302;2023-03-03T11:49:37;3.85;;;2.25;;
48651;SDS011;34442;52.362;-1.302;2023-03-03T11:52:54;6.00;;;2.65;;
48651;SDS011;34442;52.362;-1.302;2023-03-03T11:55:09;4.25;;;2.22;;
48651;SDS011;34442;52.362;-1.302;2023-03-03T12:00:28;4.80;;;2.45;;
48651;SDS011;34442;52.362;-1.302;2023-03-03T12:03:13;5.95;;;2.83;;
48651;SDS011;34442;52.362;-1.302;2023-03-03T12:12:32;6.53;;;3.45;;
48651;SDS011;34442;52.362;-1.302;2023-03-03T12:19:51;5.72;;;2.75;;
48651;SDS011;34442;52.362;-1.302;2023-03-03T12:25:02;2.78;;;1.65;;
48651;SDS011;34442;52.362;-1.302;2023-03-03T12:40:46;4.80;;;2.30;;
48651;SDS011;34442;52.362;-1.302;2023-03-03T12:43:27;3.90;;;2.00;;
48651;SDS011;34442;52.362;-1.302;2023-03-03T12:48:44;3.40;;;1.67;;
48651;SDS011;34442;52.362;-1.302;2023-03-03T12:53:53;3.75;;;2.00;;
48651;SDS011;34442;52.362;-1.302;2023-03-03T13:01:55;2.97;;;1.70;;
48651;SDS011;34442;52.362;-1.302;2023-03-03T13:04:46;2.38;;;1.35;;
48651;SDS011;34442;52.362;-1.302;2023-03-03T13:07:18;2.35;;;1.40;;
48651;SDS011;34442;52.362;-1.302;2023-03-03T13:10:01;2.20;;;1.30;;
48651;SDS011;34442;52.362;-1.302;2023-03-03T13:15:34;2.28;;;1.52;;
48651;SDS011;34442;52.362;-1.302;2023-03-03T13:20:59;2.65;;;1.40;;
48651;SDS011;34442;52.362;-1.302;2023-03-03T13:31:28;2.72;;;1.10;;
48651;SDS011;34442;52.362;-1.302;2023-03-03T13:33:57;2.88;;;1.17;;
48651;SDS011;34442;52.362;-1.302;2023-03-03T13:36:35;2.72;;;1.20;;
48651;SDS011;34442;52.362;-1.302;2023-03-03T13:39:02;2.35;;;1.60;;
48651;SDS011;34442;52.362;-1.302;2023-03-03T13:44:42;2.33;;;1.30;;
48651;SDS011;34442;52.362;-1.302;2023-03-03T13:47:20;2.00;;;1.20;;
48651;SDS011;34442;52.362;-1.302;2023-03-03T13:50:01;1.88;;;1.00;;
48651;SDS011;34442;52.362;-1.302;2023-03-03T13:52:28;1.88;;;1.13;;
48651;SDS011;34442;52.362;-1.302;2023-03-03T13:55:06;1.10;;;0.82;;
48651;SDS011;34442;52.362;-1.302;2023-03-03T14:05:16;2.30;;;1.98;;
48651;SDS011;34442;52.362;-1.302;2023-03-03T14:13:14;1.50;;;0.93;;
48651;SDS011;34442;52.362;-1.302;2023-03-03T14:15:52;1.63;;;1.05;;
48651;SDS011;34442;52.362;-1.302;2023-03-03T14:18:29;2.25;;;1.40;;
48651;SDS011;34442;52.362;-1.302;2023-03-03T14:21:18;2.80;;;1.50;;
48651;SDS011;34442;52.362;-1.302;2023-03-03T14:26:44;1.45;;;1.00;;
48651;SDS011;34442;52.362;-1.302;2023-03-03T14:29:23;1.50;;;1.08;;
48651;SDS011;34442;52.362;-1.302;2023-03-03T14:31:55;1.80;;;1.10;;
48651;SDS011;34442;52.362;-1.302;2023-03-03T14:36:51;2.97;;;1.70;;
48651;SDS011;34442;52.362;-1.302;2023-03-03T14:39:31;3.88;;;1.90;;
48651;SDS011;34442;52.362;-1.302;2023-03-03T14:42:10;2.90;;;1.73;;
48651;SDS011;34442;52.362;-1.302;2023-03-03T14:49:41;3.67;;;1.73;;
48651;SDS011;34442;52.362;-1.302;2023-03-03T14:54:42;3.17;;;1.75;;
48651;SDS011;34442;52.362;-1.302;2023-03-03T15:00:05;2.97;;;1.70;;
48651;SDS011;34442;52.362;-1.302;2023-03-03T15:05:47;2.15;;;1.20;;
48651;SDS011;34442;52.362;-1.302;2023-03-03T15:08:16;2.63;;;1.58;;
48651;SDS011;34442;52.362;-1.302;2023-03-03T15:10:52;2.85;;;1.60;;
48651;SDS011;34442;52.362;-1.302;2023-03-03T15:18:24;2.75;;;1.48;;
48651;SDS011;34442;52.362;-1.302;2023-03-03T15:21:06;2.70;;;1.55;;
48651;SDS011;34442;52.362;-1.302;2023-03-03T15:32:14;2.08;;;1.25;;
48651;SDS011;34442;52.362;-1.302;2023-03-03T15:50:53;1.52;;;1.00;;
48651;SDS011;34442;52.362;-1.302;2023-03-03T16:04:11;2.17;;;1.02;;
48651;SDS011;34442;52.362;-1.302;2023-03-03T16:07:01;1.23;;;0.95;;
48651;SDS011;34442;52.362;-1.302;2023-03-03T16:25:57;2.13;;;1.10;;
48651;SDS011;34442;52.362;-1.302;2023-03-03T16:34:13;3.20;;;1.55;;
48651;SDS011;34442;52.362;-1.302;2023-03-03T16:42:12;1.83;;;1.00;;
48651;SDS011;34442;52.362;-1.302;2023-03-03T16:44:52;1.95;;;1.00;;
48651;SDS011;34442;52.362;-1.302;2023-03-03T17:04:38;2.30;;;1.30;;
48651;SDS011;34442;52.362;-1.302;2023-03-03T17:13:05;2.03;;;0.95;;
48651;SDS011;34442;52.362;-1.302;2023-03-03T17:15:41;1.83;;;0.98;;
48651;SDS011;34442;52.362;-1.302;2023-03-03T17:18:23;1.90;;;1.00;;
48651;SDS011;34442;52.362;-1.302;2023-03-03T17:21:01;1.55;;;1.02;;
48651;SDS011;34442;52.362;-1.302;2023-03-03T17:29:40;1.70;;;1.13;;
48651;SDS011;34442;52.362;-1.302;2023-03-03T17:40:31;2.30;;;1.30;;
48651;SDS011;34442;52.362;-1.302;2023-03-03T17:43:26;1.20;;;1.05;;
48651;SDS011;34442;52.362;-1.302;2023-03-03T17:45:59;2.20;;;1.08;;
48651;SDS011;34442;52.362;-1.302;2023-03-03T17:53:52;1.40;;;0.90;;
48651;SDS011;34442;52.362;-1.302;2023-03-03T17:56:30;1.92;;;1.20;;
48651;SDS011;34442;52.362;-1.302;2023-03-03T18:01:58;2.55;;;1.30;;
48651;SDS011;34442;52.362;-1.302;2023-03-03T18:15:42;3.78;;;1.30;;
48651;SDS011;34442;52.362;-1.302;2023-03-03T18:21:23;3.72;;;1.70;;
48651;SDS011;34442;52.362;-1.302;2023-03-03T18:24:57;2.40;;;1.20;;
48651;SDS011;34442;52.362;-1.302;2023-03-03T18:26:48;4.55;;;2.30;;
48651;SDS011;34442;52.362;-1.302;2023-03-03T18:34:33;4.70;;;1.70;;
48651;SDS011;34442;52.362;-1.302;2023-03-03T18:39:36;2.20;;;1.30;;
48651;SDS011;34442;52.362;-1.302;2023-03-03T18:44:54;2.08;;;1.20;;
48651;SDS011;34442;52.362;-1.302;2023-03-03T18:47:21;2.25;;;1.50;;
48651;SDS011;34442;52.362;-1.302;2023-03-03T18:50:42;3.00;;;1.52;;
48651;SDS011;34442;52.362;-1.302;2023-03-03T18:55:54;2.55;;;1.60;;
48651;SDS011;34442;52.362;-1.302;2023-03-03T19:03:24;2.22;;;1.27;;
48651;SDS011;34442;52.362;-1.302;2023-03-03T19:06:11;2.38;;;1.20;;
48651;SDS011;34442;52.362;-1.302;2023-03-03T19:08:55;1.85;;;0.93;;
48651;SDS011;34442;52.362;-1.302;2023-03-03T19:16:51;1.95;;;1.10;;
48651;SDS011;34442;52.362;-1.302;2023-03-03T19:19:19;2.72;;;1.17;;
48651;SDS011;34442;52.362;-1.302;2023-03-03T19:25:11;1.87;;;0.90;;
48651;SDS011;34442;52.362;-1.302;2023-03-03T19:28:02;0.95;;;0.82;;
48651;SDS011;34442;52.362;-1.302;2023-03-03T19:36:06;0.90;;;0.80;;
48651;SDS011;34442;52.362;-1.302;2023-03-03T19:46:59;2.05;;;1.25;;
48651;SDS011;34442;52.362;-1.302;2023-03-03T19:49:37;4.47;;;1.60;;
48651;SDS011;34442;52.362;-1.302;2023-03-03T19:57:56;2.38;;;1.13;;
48651;SDS011;34442;52.362;-1.302;2023-03-03T20:08:43;2.58;;;1.05;;
48651;SDS011;34442;52.362;-1.302;2023-03-03T20:24:58;4.38;;;1.88;;
48651;SDS011;34442;52.362;-1.302;2023-03-03T20:43:34;5.15;;;2.33;;
48651;SDS011;34442;52.362;-1.302;2023-03-03T20:46:31;4.05;;;2.20;;
48651;SDS011;34442;52.362;-1.302;2023-03-03T20:51:54;7.05;;;2.85;;
48651;SDS011;34442;52.362;-1.302;2023-03-03T20:57:33;3.33;;;2.27;;
48651;SDS011;34442;52.362;-1.302;2023-03-03T20:59:55;2.85;;;1.83;;
48651;SDS011;34442;52.362;-1.302;2023-03-03T21:02:49;6.72;;;1.88;;
48651;SDS011;34442;52.362;-1.302;2023-03-03T21:05:24;3.83;;;2.20;;
48651;SDS011;34442;52.362;-1.302;2023-03-03T21:07:56;4.05;;;2.00;;
48651;SDS011;34442;52.362;-1.302;2023-03-03T21:10:23;3.10;;;1.83;;
48651;SDS011;34442;52.362;-1.302;2023-03-03T21:12:55;2.72;;;1.92;;
48651;SDS011;34442;52.362;-1.302;2023-03-03T21:15:24;3.08;;;1.55;;
48651;SDS011;34442;52.362;-1.302;2023-03-03T21:17:51;5.63;;;2.97;;
48651;SDS011;34442;52.362;-1.302;2023-03-03T21:22:55;4.72;;;2.65;;
48651;SDS011;34442;52.362;-1.302;2023-03-03T21:28:13;6.03;;;2.75;;
48651;SDS011;34442;52.362;-1.302;2023-03-03T21:33:37;4.60;;;2.17;;
48651;SDS011;34442;52.362;-1.302;2023-03-03T21:36:05;4.60;;;2.08;;
48651;SDS011;34442;52.362;-1.302;2023-03-03T21:38:35;3.88;;;1.95;;
48651;SDS011;34442;52.362;-1.302;2023-03-03T21:41:03;3.30;;;2.13;;
48651;SDS011;34442;52.362;-1.302;2023-03-03T21:43:36;2.97;;;1.95;;
48651;SDS011;34442;52.362;-1.302;2023-03-03T21:46:03;4.25;;;1.70;;
48651;SDS011;34442;52.362;-1.302;2023-03-03T21:48:29;3.88;;;1.73;;
48651;SDS011;34442;52.362;-1.302;2023-03-03T21:50:54;4.13;;;2.13;;
48651;SDS011;34442;52.362;-1.302;2023-03-03T21:53:20;3.20;;;1.90;;
48651;SDS011;34442;52.362;-1.302;2023-03-03T21:55:47;5.57;;;2.35;;
48651;SDS011;34442;52.362;-1.302;2023-03-03T21:58:14;4.00;;;1.80;;
48651;SDS011;34442;52.362;-1.302;2023-03-03T22:00:40;3.88;;;2.03;;
48651;SDS011;34442;52.362;-1.302;2023-03-03T22:03:08;2.78;;;1.95;;
48651;SDS011;34442;52.362;-1.302;2023-03-03T22:05:34;5.13;;;2.17;;
48651;SDS011;34442;52.362;-1.302;2023-03-03T22:07:59;3.25;;;1.73;;
48651;SDS011;34442;52.362;-1.302;2023-03-03T22:10:24;3.85;;;2.22;;
48651;SDS011;34442;52.362;-1.302;2023-03-03T22:12:50;5.28;;;2.22;;
48651;SDS011;34442;52.362;-1.302;2023-03-03T22:15:15;4.13;;;2.17;;
48651;SDS011;34442;52.362;-1.302;2023-03-03T22:17:40;5.22;;;2.10;;
48651;SDS011;34442;52.362;-1.302;2023-03-03T22:20:07;4.63;;;2.60;;
48651;SDS011;34442;52.362;-1.302;2023-03-03T22:22:36;6.43;;;2.60;;